createdAt,value
2023-02-02T00:54:49.900Z,28.57
2023-02-02T00:55:50.839Z,27.85
2023-02-02T00:56:50.795Z,27.77
2023-02-02T00:57:50.749Z,27.68
2023-02-02T00:58:50.702Z,27.64
2023-02-02T00:59:50.657Z,27.58
2023-02-02T01:00:50.696Z,27.55
2023-02-02T01:01:50.642Z,27.52
2023-02-02T01:02:50.528Z,27.53
2023-02-02T01:03:50.488Z,27.49
2023-02-02T01:04:50.441Z,27.48
2023-02-02T01:05:50.400Z,27.46
2023-02-02T01:06:50.360Z,27.46
2023-02-02T01:07:50.325Z,27.46
2023-02-02T01:08:50.287Z,27.46
2023-02-02T01:09:50.245Z,27.47
2023-02-02T01:10:50.223Z,27.44
2023-02-02T01:11:50.165Z,27.45
2023-02-02T01:12:50.138Z,27.44
2023-02-02T01:13:50.086Z,27.43
2023-02-02T01:14:50.059Z,27.44
2023-02-02T01:15:50.023Z,27.44
2023-02-02T01:16:50.017Z,27.44
2023-02-02T01:17:49.936Z,27.43
2023-02-02T01:18:49.886Z,27.42
2023-02-02T01:19:49.843Z,27.42
2023-02-02T01:20:49.811Z,27.42
2023-02-02T01:21:49.766Z,27.42
2023-02-02T01:22:49.730Z,27.42
2023-02-02T01:23:49.692Z,27.40
2023-02-02T01:24:49.651Z,27.42
2023-02-02T01:25:49.625Z,27.39
2023-02-02T01:26:49.624Z,27.39
2023-02-02T01:27:49.518Z,27.41
2023-02-02T01:28:49.497Z,27.41
2023-02-02T01:29:49.442Z,27.41
2023-02-02T01:30:49.421Z,27.39
2023-02-02T01:31:49.433Z,27.39
2023-02-02T01:32:49.344Z,27.37
2023-02-02T01:33:49.343Z,27.37
2023-02-02T01:34:49.284Z,27.39
2023-02-02T01:35:49.202Z,27.38
2023-02-02T01:36:49.165Z,27.39
2023-02-02T01:37:49.128Z,27.37
2023-02-02T01:38:49.081Z,27.38
2023-02-02T01:39:49.065Z,27.36
2023-02-02T01:40:48.992Z,27.38
2023-02-02T01:41:48.962Z,27.38
2023-02-02T01:42:48.955Z,27.36
2023-02-02T01:43:48.881Z,27.36
2023-02-02T01:44:48.936Z,27.35
2023-02-02T01:45:48.852Z,27.36
2023-02-02T01:46:48.782Z,27.36
2023-02-02T01:47:48.744Z,27.36
2023-02-02T01:48:48.720Z,27.35
2023-02-02T01:49:48.686Z,27.35
2023-02-02T01:50:48.687Z,27.35
2023-02-02T01:51:48.675Z,27.35
2023-02-02T01:52:48.618Z,27.36
2023-02-02T01:53:48.557Z,27.36
2023-02-02T01:54:48.502Z,27.35
2023-02-02T01:55:48.487Z,27.36
2023-02-02T01:56:48.435Z,27.35
2023-02-02T01:57:48.389Z,27.35
2023-02-02T01:58:48.381Z,27.35
2023-02-02T01:59:48.377Z,27.35
2023-02-02T02:00:48.277Z,27.36
2023-02-02T02:01:48.232Z,27.34
2023-02-02T02:02:48.290Z,27.34
2023-02-02T02:03:48.148Z,27.35
2023-02-02T02:04:48.161Z,27.34
2023-02-02T02:05:48.176Z,27.34
2023-02-02T02:06:48.063Z,27.35
2023-02-02T02:07:47.989Z,27.33
2023-02-02T02:08:47.944Z,27.33
2023-02-02T02:09:47.904Z,27.34
2023-02-02T02:10:47.865Z,27.31
2023-02-02T02:11:47.869Z,27.33
2023-02-02T02:12:47.782Z,27.33
2023-02-02T02:13:47.742Z,27.31
2023-02-02T02:14:47.723Z,27.33
2023-02-02T02:15:47.664Z,27.32
2023-02-02T02:16:47.684Z,27.33
2023-02-02T02:17:47.576Z,27.32
2023-02-02T02:18:47.534Z,27.32
2023-02-02T02:19:47.496Z,27.34
2023-02-02T02:20:47.507Z,27.33
2023-02-02T02:21:47.428Z,27.33
2023-02-02T02:22:47.390Z,27.31
2023-02-02T02:23:47.346Z,27.31
2023-02-02T02:24:47.299Z,27.31
2023-02-02T02:25:47.260Z,27.30
2023-02-02T02:26:47.295Z,27.32
2023-02-02T02:27:47.187Z,27.29
2023-02-02T02:28:47.139Z,27.30
2023-02-02T02:29:47.099Z,27.31
2023-02-02T02:30:47.132Z,27.29
2023-02-02T02:31:47.145Z,27.30
2023-02-02T02:32:46.971Z,27.29
2023-02-02T02:33:46.924Z,27.30
2023-02-02T02:34:46.882Z,27.30
2023-02-02T02:35:46.889Z,27.32
2023-02-02T02:36:46.802Z,27.29
2023-02-02T02:37:46.769Z,27.28
2023-02-02T02:38:46.730Z,27.29
2023-02-02T02:39:46.701Z,27.28
2023-02-02T02:40:46.665Z,27.30
2023-02-02T02:41:46.626Z,27.32
2023-02-02T02:42:46.590Z,27.30
2023-02-02T02:43:46.567Z,27.28
2023-02-02T02:44:46.522Z,27.27
2023-02-02T02:45:46.510Z,27.28
2023-02-02T02:46:46.480Z,27.29
2023-02-02T02:47:46.416Z,27.27
2023-02-02T02:48:46.397Z,27.26
2023-02-02T02:49:46.375Z,27.25
2023-02-02T02:50:46.424Z,27.27
2023-02-02T02:51:46.313Z,27.27
2023-02-02T02:52:46.257Z,27.30
2023-02-02T02:53:46.222Z,27.28
2023-02-02T02:54:46.196Z,27.30
2023-02-02T02:55:46.151Z,27.28
2023-02-02T02:56:46.125Z,27.26
2023-02-02T02:57:46.081Z,27.28
2023-02-02T02:58:46.121Z,27.27
2023-02-02T02:59:46.019Z,27.26
2023-02-02T03:00:46.012Z,27.30
2023-02-02T03:01:46.008Z,27.28
2023-02-02T03:02:45.959Z,27.29
2023-02-02T03:03:45.897Z,27.28
2023-02-02T03:04:45.848Z,27.30
2023-02-02T03:05:45.816Z,27.28
2023-02-02T03:06:45.849Z,27.29
2023-02-02T03:07:45.728Z,27.27
2023-02-02T03:08:45.717Z,27.28
2023-02-02T03:09:45.666Z,27.28
2023-02-02T03:10:45.666Z,27.27
2023-02-02T03:11:45.591Z,27.27
2023-02-02T03:12:45.560Z,27.27
2023-02-02T03:13:45.556Z,27.26
2023-02-02T03:14:45.483Z,27.27
2023-02-02T03:15:45.509Z,27.25
2023-02-02T03:16:45.416Z,27.26
2023-02-02T03:17:45.377Z,27.25
2023-02-02T03:18:45.367Z,27.27
2023-02-02T03:19:45.297Z,27.26
2023-02-02T03:20:45.262Z,27.27
2023-02-02T03:21:45.226Z,27.28
2023-02-02T03:22:45.278Z,27.26
2023-02-02T03:23:45.139Z,27.25
2023-02-02T03:24:45.098Z,27.24
2023-02-02T03:25:45.074Z,27.25
2023-02-02T03:26:45.057Z,27.27
2023-02-02T03:27:44.984Z,27.25
2023-02-02T03:28:44.941Z,27.26
2023-02-02T03:29:44.902Z,27.27
2023-02-02T03:30:44.882Z,27.26
2023-02-02T03:31:44.887Z,27.25
2023-02-02T03:32:44.780Z,27.28
2023-02-02T03:33:44.740Z,27.26
2023-02-02T03:34:44.722Z,27.24
2023-02-02T03:35:44.665Z,27.26
2023-02-02T03:36:44.623Z,27.25
2023-02-02T03:37:44.604Z,27.28
2023-02-02T03:38:44.626Z,27.26
2023-02-02T03:39:44.510Z,27.25
2023-02-02T03:40:44.469Z,27.25
2023-02-02T03:41:44.430Z,27.26
2023-02-02T03:42:44.383Z,27.25
2023-02-02T03:43:44.367Z,27.24
2023-02-02T03:44:44.289Z,27.25
2023-02-02T03:45:44.245Z,27.24
2023-02-02T03:46:44.326Z,27.24
2023-02-02T03:47:44.202Z,27.26
2023-02-02T03:48:44.120Z,27.26
2023-02-02T03:49:44.089Z,27.25
2023-02-02T03:50:44.063Z,27.23
2023-02-02T03:51:43.991Z,27.23
2023-02-02T03:52:43.947Z,27.25
2023-02-02T03:53:43.922Z,27.25
2023-02-02T03:54:43.884Z,27.25
2023-02-02T03:55:43.816Z,27.25
2023-02-02T03:56:43.801Z,27.26
2023-02-02T03:57:43.731Z,27.26
2023-02-02T03:58:43.682Z,27.25
2023-02-02T03:59:43.641Z,27.26
2023-02-02T04:00:43.634Z,27.24
2023-02-02T04:01:43.596Z,27.26
2023-02-02T04:02:43.557Z,27.26
2023-02-02T04:03:43.623Z,27.25
2023-02-02T04:04:43.438Z,27.26
2023-02-02T04:05:43.441Z,27.26
2023-02-02T04:06:43.386Z,27.26
2023-02-02T04:07:43.306Z,27.27
2023-02-02T04:08:43.287Z,27.26
2023-02-02T04:09:43.209Z,27.25
2023-02-02T04:10:43.158Z,27.26
2023-02-02T04:11:43.119Z,27.27
2023-02-02T04:12:43.073Z,27.27
2023-02-02T04:13:43.025Z,27.26
2023-02-02T04:14:42.981Z,27.28
2023-02-02T04:15:42.940Z,27.26
2023-02-02T04:16:42.894Z,27.26
2023-02-02T04:17:42.874Z,27.26
2023-02-02T04:18:42.798Z,27.27
2023-02-02T04:19:42.765Z,27.27
2023-02-02T04:20:42.710Z,27.28
2023-02-02T04:21:42.666Z,27.25
2023-02-02T04:22:42.645Z,27.29
2023-02-02T04:23:42.568Z,27.25
2023-02-02T04:24:42.529Z,27.27
2023-02-02T04:25:42.485Z,27.29
2023-02-02T04:26:42.514Z,27.27
2023-02-02T04:27:42.405Z,27.28
2023-02-02T04:28:42.367Z,27.25
2023-02-02T04:29:42.284Z,27.25
2023-02-02T04:30:42.268Z,27.26
2023-02-02T04:31:42.315Z,27.25
2023-02-02T04:32:42.155Z,27.27
2023-02-02T04:33:42.153Z,27.27
2023-02-02T04:34:42.073Z,27.26
2023-02-02T04:35:42.023Z,27.26
2023-02-02T04:36:41.974Z,27.26
2023-02-02T04:37:41.952Z,27.28
2023-02-02T04:38:41.935Z,27.27
2023-02-02T04:39:41.828Z,27.25
2023-02-02T04:40:41.780Z,27.26
2023-02-02T04:41:41.743Z,27.25
2023-02-02T04:42:41.692Z,27.26
2023-02-02T04:43:41.649Z,27.26
2023-02-02T04:44:41.617Z,27.24
2023-02-02T04:45:41.628Z,27.25
2023-02-02T04:46:41.531Z,27.23
2023-02-02T04:47:41.456Z,27.28
2023-02-02T04:48:41.428Z,27.25
2023-02-02T04:49:41.388Z,27.25
2023-02-02T04:50:41.320Z,27.26
2023-02-02T04:51:41.331Z,27.25
2023-02-02T04:52:41.235Z,27.25
2023-02-02T04:53:41.188Z,27.25
2023-02-02T04:54:41.170Z,27.25
2023-02-02T04:55:41.107Z,27.25
2023-02-02T04:56:41.892Z,27.24
2023-02-02T04:57:41.025Z,27.24
2023-02-02T04:58:40.980Z,27.22
2023-02-02T04:59:42.431Z,27.24
2023-02-02T05:00:41.038Z,27.20
2023-02-02T05:01:40.988Z,27.23
2023-02-02T05:02:40.946Z,27.22
2023-02-02T05:03:40.915Z,27.22
2023-02-02T05:04:40.978Z,27.24
2023-02-02T05:05:40.814Z,27.23
2023-02-02T05:06:40.772Z,27.24
2023-02-02T05:07:40.735Z,27.23
2023-02-02T05:08:40.691Z,27.23
2023-02-02T05:09:40.674Z,27.24
2023-02-02T05:10:40.643Z,27.21
2023-02-02T05:11:40.584Z,27.21
2023-02-02T05:12:40.516Z,27.19
2023-02-02T05:13:40.469Z,27.20
2023-02-02T05:14:40.421Z,27.19
2023-02-02T05:15:40.374Z,27.22
2023-02-02T05:16:40.424Z,27.22
2023-02-02T05:17:40.302Z,27.21
2023-02-02T05:18:40.275Z,27.20
2023-02-02T05:19:40.194Z,27.23
2023-02-02T05:20:40.159Z,27.21
2023-02-02T05:21:40.114Z,27.21
2023-02-02T05:22:40.061Z,27.20
2023-02-02T05:23:40.036Z,27.21
2023-02-02T05:24:39.979Z,27.20
2023-02-02T05:25:39.937Z,27.21
2023-02-02T05:26:39.965Z,27.20
2023-02-02T05:27:39.844Z,27.21
2023-02-02T05:28:39.804Z,27.20
2023-02-02T05:29:39.759Z,27.19
2023-02-02T05:30:39.814Z,27.19
2023-02-02T05:31:39.751Z,27.19
2023-02-02T05:32:39.630Z,27.19
2023-02-02T05:33:39.602Z,27.18
2023-02-02T05:34:39.550Z,27.18
2023-02-02T05:35:39.507Z,27.18
2023-02-02T05:36:39.469Z,27.17
2023-02-02T05:37:39.425Z,27.18
2023-02-02T05:38:39.383Z,27.15
2023-02-02T05:39:39.351Z,27.17
2023-02-02T05:40:39.304Z,27.17
2023-02-02T05:41:39.255Z,27.15
2023-02-02T05:42:39.253Z,27.16
2023-02-02T05:43:39.200Z,27.15
2023-02-02T05:44:39.131Z,27.14
2023-02-02T05:45:39.113Z,27.16
2023-02-02T05:46:39.018Z,27.13
2023-02-02T05:47:38.976Z,27.13
2023-02-02T05:48:38.978Z,27.13
2023-02-02T05:49:38.891Z,27.13
2023-02-02T05:50:38.843Z,27.12
2023-02-02T05:51:38.812Z,27.14
2023-02-02T05:52:38.754Z,27.11
2023-02-02T05:53:38.748Z,27.12
2023-02-02T05:54:38.678Z,27.11
2023-02-02T05:55:38.639Z,27.10
2023-02-02T05:56:38.589Z,27.08
2023-02-02T05:57:38.545Z,27.10
2023-02-02T05:58:38.566Z,27.09
2023-02-02T05:59:38.468Z,27.12
2023-02-02T06:00:38.421Z,27.09
2023-02-02T06:01:38.385Z,27.10
2023-02-02T06:02:38.342Z,27.09
2023-02-02T06:03:38.516Z,27.10
2023-02-02T06:04:38.252Z,27.08
2023-02-02T06:05:38.223Z,27.07
2023-02-02T06:06:38.168Z,27.08
2023-02-02T06:07:38.125Z,27.07
2023-02-02T06:08:38.151Z,27.06
2023-02-02T06:09:38.059Z,27.09
2023-02-02T06:10:38.005Z,27.08
2023-02-02T06:11:38.050Z,27.08
2023-02-02T06:12:37.941Z,27.06
2023-02-02T06:13:37.900Z,27.07
2023-02-02T06:14:37.886Z,27.07
2023-02-02T06:15:37.854Z,27.07
2023-02-02T06:16:37.785Z,27.08
2023-02-02T06:17:37.774Z,27.07
2023-02-02T06:18:37.696Z,27.05
2023-02-02T06:19:37.964Z,27.06
2023-02-02T06:20:37.615Z,27.06
2023-02-02T06:21:37.600Z,27.06
2023-02-02T06:22:38.094Z,27.07
2023-02-02T06:23:37.509Z,27.04
2023-02-02T06:24:37.475Z,27.04
2023-02-02T06:25:37.439Z,27.07
2023-02-02T06:26:37.970Z,27.09
2023-02-02T06:27:37.423Z,27.12
2023-02-02T06:28:37.341Z,27.15
2023-02-02T06:29:37.284Z,27.17
2023-02-02T06:30:37.308Z,27.19
2023-02-02T06:31:37.317Z,27.20
2023-02-02T06:32:37.481Z,27.24
2023-02-02T06:33:37.137Z,27.23
2023-02-02T06:34:37.130Z,27.24
2023-02-02T06:35:37.069Z,27.28
2023-02-02T06:36:37.037Z,27.31
2023-02-02T06:37:36.993Z,27.31
2023-02-02T06:38:36.954Z,27.36
2023-02-02T06:39:36.935Z,27.41
2023-02-02T06:40:36.873Z,27.40
2023-02-02T06:41:36.843Z,27.38
2023-02-02T06:42:36.805Z,27.36
2023-02-02T06:43:36.771Z,27.37
2023-02-02T06:44:36.725Z,27.43
2023-02-02T06:45:36.695Z,27.48
2023-02-02T06:46:36.736Z,27.50
2023-02-02T06:47:36.612Z,27.53
2023-02-02T06:48:36.567Z,27.54
2023-02-02T06:49:36.944Z,27.55
2023-02-02T06:50:36.502Z,27.58
2023-02-02T06:51:36.465Z,27.64
2023-02-02T06:52:36.450Z,27.67
2023-02-02T06:53:39.581Z,27.73
2023-02-02T06:54:36.445Z,27.99
2023-02-02T06:55:36.328Z,28.32
2023-02-02T06:56:36.285Z,28.40
2023-02-02T06:57:36.471Z,28.73
2023-02-02T06:58:39.429Z,28.99
2023-02-02T06:59:37.159Z,29.48
2023-02-02T07:00:36.112Z,29.71
2023-02-02T07:01:36.176Z,29.89
2023-02-02T07:02:36.138Z,30.08
2023-02-02T07:03:36.466Z,30.14
2023-02-02T07:04:36.945Z,30.28
2023-02-02T07:05:36.462Z,30.83
2023-02-02T07:06:35.843Z,30.73
2023-02-02T07:07:35.949Z,30.87
2023-02-02T07:09:07.780Z,30.73
2023-02-02T07:09:35.742Z,30.64
2023-02-02T07:11:11.546Z,30.55
2023-02-02T07:11:36.981Z,30.53
2023-02-02T07:12:35.588Z,30.53
2023-02-02T07:13:35.942Z,30.46
2023-02-02T07:14:35.478Z,30.38
2023-02-02T07:15:35.441Z,30.35
2023-02-02T07:16:35.405Z,30.35
2023-02-02T07:17:35.331Z,30.39
2023-02-02T07:18:35.480Z,30.41
2023-02-02T07:19:35.229Z,30.43
2023-02-02T07:20:35.459Z,30.41
2023-02-02T07:21:35.135Z,30.43
2023-02-02T07:22:35.083Z,30.43
2023-02-02T07:23:35.039Z,30.43
2023-02-02T07:24:34.980Z,30.41
2023-02-02T07:25:34.990Z,30.40
2023-02-02T07:26:34.987Z,30.38
2023-02-02T07:27:34.818Z,30.40
2023-02-02T07:28:34.979Z,30.42
2023-02-02T07:29:34.719Z,30.40
2023-02-02T07:30:34.734Z,30.36
2023-02-02T07:31:36.514Z,30.36
2023-02-02T07:32:34.577Z,30.39
2023-02-02T07:33:34.514Z,30.36
2023-02-02T07:34:34.979Z,30.37
2023-02-02T07:35:34.426Z,30.36
2023-02-02T07:36:34.369Z,30.37
2023-02-02T07:37:34.327Z,30.35
2023-02-02T07:38:34.291Z,30.34
2023-02-02T07:39:34.226Z,30.31
2023-02-02T07:40:34.166Z,30.34
2023-02-02T07:41:34.122Z,30.29
2023-02-02T07:42:34.126Z,30.30
2023-02-02T07:43:34.480Z,30.30
2023-02-02T07:44:33.991Z,30.28
2023-02-02T07:45:33.935Z,30.29
2023-02-02T07:46:34.063Z,30.33
2023-02-02T07:47:33.931Z,30.38
2023-02-02T07:48:33.984Z,30.39
2023-02-02T07:49:33.827Z,30.49
2023-02-02T07:50:33.827Z,30.53
2023-02-02T07:51:33.739Z,30.52
2023-02-02T07:52:33.694Z,30.48
2023-02-02T07:53:33.985Z,30.36
2023-02-02T07:54:41.046Z,30.37
2023-02-02T07:55:34.496Z,30.36
2023-02-02T07:56:33.532Z,30.35
2023-02-02T07:57:33.484Z,30.32
2023-02-02T07:58:33.446Z,30.29
2023-02-02T07:59:33.407Z,30.25
2023-02-02T08:00:33.459Z,30.23
2023-02-02T08:01:33.502Z,30.23
2023-02-02T08:02:33.347Z,30.23
2023-02-02T08:03:34.229Z,30.19
2023-02-02T08:04:33.196Z,30.16
2023-02-02T08:05:33.492Z,30.14
2023-02-02T08:06:33.497Z,30.12
2023-02-02T08:07:33.070Z,30.08
2023-02-02T08:08:33.463Z,30.07
2023-02-02T08:09:32.984Z,30.06
2023-02-02T08:10:32.942Z,30.04
2023-02-02T08:11:32.936Z,30.03
2023-02-02T08:12:32.902Z,30.01
2023-02-02T08:13:36.001Z,29.98
2023-02-02T08:14:32.767Z,29.99
2023-02-02T08:15:32.725Z,29.97
2023-02-02T08:16:33.084Z,29.98
2023-02-02T08:17:32.655Z,29.92
2023-02-02T08:18:32.624Z,29.90
2023-02-02T08:19:32.628Z,29.89
2023-02-02T08:20:33.004Z,29.89
2023-02-02T08:21:32.974Z,29.85
2023-02-02T08:22:32.509Z,29.87
2023-02-02T08:23:32.434Z,29.82
2023-02-02T08:24:32.388Z,29.83
2023-02-02T08:25:32.491Z,29.79
2023-02-02T08:26:32.544Z,29.80
2023-02-02T08:27:32.302Z,29.78
2023-02-02T08:28:32.234Z,29.77
2023-02-02T08:29:32.498Z,29.76
2023-02-02T08:30:32.162Z,29.77
2023-02-02T08:31:32.654Z,29.75
2023-02-02T08:32:32.087Z,29.76
2023-02-02T08:33:32.037Z,29.72
2023-02-02T08:34:32.033Z,29.76
2023-02-02T08:35:31.981Z,29.81
2023-02-02T08:36:31.960Z,29.88
2023-02-02T08:37:32.386Z,29.98
2023-02-02T08:38:31.875Z,30.03
2023-02-02T08:39:31.867Z,30.12
2023-02-02T08:40:32.029Z,30.19
2023-02-02T08:41:31.760Z,30.38
2023-02-02T08:42:31.713Z,30.43
2023-02-02T08:43:31.676Z,30.43
2023-02-02T08:45:57.593Z,30.49
2023-02-02T08:46:02.313Z,30.59
2023-02-02T08:46:31.608Z,30.61
2023-02-02T08:47:31.498Z,30.65
2023-02-02T08:48:31.479Z,30.81
2023-02-02T08:49:31.380Z,30.92
2023-02-02T08:50:31.661Z,31.03
2023-02-02T08:51:31.697Z,31.07
2023-02-02T08:52:31.249Z,31.15
2023-02-02T08:53:31.209Z,31.24
2023-02-02T08:54:31.171Z,31.31
2023-02-02T08:55:31.510Z,31.34
2023-02-02T08:56:32.102Z,31.28
2023-02-02T08:57:31.051Z,30.96
2023-02-02T08:58:31.015Z,30.97
2023-02-02T08:59:32.953Z,30.94
2023-02-02T09:00:31.053Z,30.94
2023-02-02T09:01:34.045Z,30.68
2023-02-02T09:02:30.895Z,31.07
2023-02-02T09:03:30.769Z,31.19
2023-02-02T09:04:31.036Z,31.00
2023-02-02T09:05:31.658Z,30.77
2023-02-02T09:06:31.061Z,31.25
2023-02-02T09:07:31.078Z,31.43
2023-02-02T09:08:30.657Z,31.48
2023-02-02T09:09:30.449Z,31.48
2023-02-02T09:10:30.495Z,31.51
2023-02-02T09:11:31.401Z,31.51
2023-02-02T09:12:30.337Z,31.46
2023-02-02T09:13:30.524Z,31.52
2023-02-02T09:14:30.305Z,31.56
2023-02-02T09:15:30.573Z,31.58
2023-02-02T09:16:30.685Z,31.61
2023-02-02T09:17:30.130Z,31.63
2023-02-02T09:18:30.084Z,31.73
2023-02-02T09:19:29.036Z,31.76
2023-02-02T09:20:29.985Z,31.80
2023-02-02T09:21:30.044Z,31.86
2023-02-02T09:22:30.078Z,31.87
2023-02-02T09:23:29.850Z,31.93
2023-02-02T09:24:29.822Z,31.95
2023-02-02T09:25:29.750Z,31.99
2023-02-02T09:26:29.860Z,31.99
2023-02-02T09:27:29.665Z,32.04
2023-02-02T09:28:29.616Z,32.10
2023-02-02T09:29:29.564Z,32.29
2023-02-02T09:30:30.091Z,32.31
2023-02-02T09:31:29.512Z,32.26
2023-02-02T09:32:29.463Z,32.35
2023-02-02T09:33:29.352Z,32.44
2023-02-02T09:34:29.329Z,32.44
2023-02-02T09:35:29.501Z,32.52
2023-02-02T09:36:29.209Z,32.60
2023-02-02T09:37:29.163Z,32.61
2023-02-02T09:38:29.099Z,32.76
2023-02-02T09:39:29.075Z,32.76
2023-02-02T09:40:29.501Z,32.80
2023-02-02T09:41:28.968Z,32.91
2023-02-02T09:42:28.914Z,32.88
2023-02-02T09:43:28.857Z,32.89
2023-02-02T09:44:28.820Z,32.94
2023-02-02T09:45:29.380Z,32.94
2023-02-02T09:46:28.708Z,33.01
2023-02-02T09:47:29.031Z,33.07
2023-02-02T09:48:28.590Z,33.06
2023-02-02T09:49:28.552Z,32.80
2023-02-02T09:50:28.520Z,32.92
2023-02-02T09:51:28.458Z,32.96
2023-02-02T09:52:28.522Z,33.00
2023-02-02T09:53:28.372Z,33.03
2023-02-02T09:54:28.291Z,33.02
2023-02-02T09:55:28.274Z,33.13
2023-02-02T09:56:28.196Z,33.23
2023-02-02T09:57:28.648Z,33.22
2023-02-02T09:58:28.123Z,33.30
2023-02-02T09:59:28.184Z,33.38
2023-02-02T10:00:28.014Z,33.45
2023-02-02T10:01:28.012Z,33.47
2023-02-02T10:02:28.024Z,33.56
2023-02-02T10:03:28.089Z,33.67
2023-02-02T10:04:27.835Z,33.70
2023-02-02T10:05:27.758Z,33.53
2023-02-02T10:06:27.725Z,32.76
2023-02-02T10:07:28.030Z,31.59
2023-02-02T10:08:34.754Z,31.01
2023-02-02T10:09:27.586Z,31.35
2023-02-02T10:10:27.530Z,32.16
2023-02-02T10:11:27.517Z,32.95
2023-02-02T10:12:27.495Z,33.25
2023-02-02T10:13:27.396Z,33.26
2023-02-02T10:14:27.443Z,33.32
2023-02-02T10:15:27.680Z,33.39
2023-02-02T10:16:27.260Z,33.40
2023-02-02T10:17:27.568Z,33.36
2023-02-02T10:18:27.165Z,33.31
2023-02-02T10:19:27.528Z,33.24
2023-02-02T10:20:27.582Z,33.25
2023-02-02T10:21:27.019Z,33.29
2023-02-02T10:22:26.979Z,33.31
2023-02-02T10:23:26.933Z,33.37
2023-02-02T10:24:27.031Z,33.39
2023-02-02T10:25:26.840Z,33.43
2023-02-02T10:26:26.799Z,33.53
2023-02-02T10:27:26.737Z,33.53
2023-02-02T10:28:27.014Z,33.66
2023-02-02T10:29:29.224Z,33.68
2023-02-02T10:30:26.874Z,33.80
2023-02-02T10:31:26.574Z,33.83
2023-02-02T10:32:26.512Z,34.04
2023-02-02T10:33:26.518Z,33.91
2023-02-02T10:34:26.387Z,33.92
2023-02-02T10:35:26.339Z,33.95
2023-02-02T10:36:26.287Z,33.91
2023-02-02T10:37:26.247Z,33.69
2023-02-02T10:38:26.519Z,33.55
2023-02-02T10:39:33.589Z,33.50
2023-02-02T10:40:26.466Z,33.71
2023-02-02T10:41:26.046Z,33.74
2023-02-02T10:42:26.028Z,33.84
2023-02-02T10:43:25.948Z,33.88
2023-02-02T10:44:25.980Z,33.92
2023-02-02T10:45:26.035Z,34.11
2023-02-02T10:46:25.961Z,34.10
2023-02-02T10:47:25.750Z,34.24
2023-02-02T10:48:26.049Z,34.26
2023-02-02T10:49:25.661Z,34.42
2023-02-02T10:50:26.055Z,34.65
2023-02-02T10:51:25.561Z,34.80
2023-02-02T10:52:26.563Z,34.87
2023-02-02T10:53:25.523Z,34.97
2023-02-02T10:54:25.420Z,35.02
2023-02-02T10:55:25.363Z,35.03
2023-02-02T10:56:25.305Z,35.00
2023-02-02T10:57:25.252Z,35.03
2023-02-02T10:58:25.539Z,35.07
2023-02-02T10:59:26.034Z,35.00
2023-02-02T11:00:25.664Z,35.06
2023-02-02T11:01:25.072Z,35.21
2023-02-02T11:02:25.223Z,35.24
2023-02-02T11:03:25.096Z,35.24
2023-02-02T11:04:24.903Z,35.36
2023-02-02T11:05:24.952Z,35.42
2023-02-02T11:06:24.877Z,35.46
2023-02-02T11:07:24.726Z,35.55
2023-02-02T11:08:25.100Z,35.58
2023-02-02T11:09:24.645Z,35.59
2023-02-02T11:10:25.038Z,35.74
2023-02-02T11:11:25.118Z,35.80
2023-02-02T11:12:24.478Z,35.80
2023-02-02T11:13:24.612Z,35.95
2023-02-02T11:14:24.350Z,35.99
2023-02-02T11:15:24.282Z,35.90
2023-02-02T11:16:25.720Z,35.91
2023-02-02T11:17:24.338Z,36.02
2023-02-02T11:18:24.751Z,36.16
2023-02-02T11:19:24.178Z,36.27
2023-02-02T11:20:24.434Z,36.27
2023-02-02T11:21:23.947Z,36.34
2023-02-02T11:22:23.921Z,36.42
2023-02-02T11:23:24.039Z,36.43
2023-02-02T11:24:24.032Z,36.53
2023-02-02T11:25:23.729Z,36.38
2023-02-02T11:26:23.714Z,36.13
2023-02-02T11:27:23.623Z,33.24
2023-02-02T11:28:24.045Z,31.18
2023-02-02T11:29:23.499Z,30.52
2023-02-02T11:30:23.849Z,29.76
2023-02-02T11:31:23.676Z,31.11
2023-02-02T11:32:23.348Z,32.28
2023-02-02T11:33:23.716Z,33.51
2023-02-02T11:34:23.272Z,34.41
2023-02-02T11:35:23.208Z,34.38
2023-02-02T11:36:23.165Z,34.52
2023-02-02T11:37:23.125Z,34.60
2023-02-02T11:38:23.540Z,34.69
2023-02-02T11:39:23.041Z,34.58
2023-02-02T11:40:23.259Z,34.62
2023-02-02T11:41:23.900Z,34.61
2023-02-02T11:42:22.866Z,34.64
2023-02-02T11:43:23.072Z,34.91
2023-02-02T11:44:22.764Z,34.79
2023-02-02T11:45:22.752Z,34.78
2023-02-02T11:46:22.703Z,34.84
2023-02-02T11:47:22.637Z,34.92
2023-02-02T11:48:22.577Z,35.01
2023-02-02T11:49:22.563Z,35.02
2023-02-02T11:50:22.797Z,35.04
2023-02-02T11:51:22.501Z,35.09
2023-02-02T11:52:22.345Z,35.09
2023-02-02T11:53:22.259Z,35.15
2023-02-02T11:54:22.573Z,35.23
2023-02-02T11:55:22.137Z,35.33
2023-02-02T11:56:22.093Z,35.44
2023-02-02T11:57:22.053Z,35.54
2023-02-02T11:58:21.966Z,35.71
2023-02-02T11:59:22.063Z,35.78
2023-02-02T12:00:21.847Z,35.80
2023-02-02T12:01:21.867Z,35.81
2023-02-02T12:02:22.805Z,35.83
2023-02-02T12:03:21.696Z,35.89
2023-02-02T12:04:22.128Z,35.97
2023-02-02T12:05:21.576Z,36.14
2023-02-02T12:06:21.578Z,36.17
2023-02-02T12:07:21.459Z,36.28
2023-02-02T12:08:21.425Z,36.44
2023-02-02T12:09:21.562Z,36.53
2023-02-02T12:10:21.328Z,36.61
2023-02-02T12:11:21.568Z,36.82
2023-02-02T12:12:21.210Z,36.67
2023-02-02T12:13:21.179Z,36.62
2023-02-02T12:14:21.095Z,36.59
2023-02-02T12:15:21.092Z,36.55
2023-02-02T12:16:21.150Z,36.39
2023-02-02T12:17:20.992Z,36.43
2023-02-02T12:18:22.079Z,36.46
2023-02-02T12:19:21.081Z,36.40
2023-02-02T12:20:20.835Z,36.34
2023-02-02T12:21:20.744Z,36.19
2023-02-02T12:22:20.738Z,35.94
2023-02-02T12:23:20.628Z,35.71
2023-02-02T12:24:21.085Z,35.57
2023-02-02T12:25:20.531Z,35.43
2023-02-02T12:26:20.764Z,35.36
2023-02-02T12:27:20.483Z,35.34
2023-02-02T12:28:20.387Z,35.35
2023-02-02T12:29:20.332Z,35.35
2023-02-02T12:30:20.614Z,35.21
2023-02-02T12:31:20.306Z,35.13
2023-02-02T12:32:20.198Z,34.79
2023-02-02T12:33:20.151Z,34.77
2023-02-02T12:34:20.563Z,34.74
2023-02-02T12:35:20.086Z,34.60
2023-02-02T12:36:20.013Z,34.55
2023-02-02T12:37:19.967Z,34.42
2023-02-02T12:38:19.939Z,34.31
2023-02-02T12:39:20.061Z,34.27
2023-02-02T12:40:19.822Z,34.25
2023-02-02T12:41:20.063Z,34.15
2023-02-02T12:42:19.717Z,34.09
2023-02-02T12:43:20.060Z,34.05
2023-02-02T12:44:19.619Z,33.93
2023-02-02T12:45:19.569Z,33.82
2023-02-02T12:46:19.739Z,33.80
2023-02-02T12:47:19.477Z,33.76
2023-02-02T12:48:19.564Z,33.70
2023-02-02T12:49:19.563Z,33.73
2023-02-02T12:50:19.618Z,33.68
2023-02-02T12:51:19.294Z,33.67
2023-02-02T12:52:19.253Z,33.66
2023-02-02T12:53:19.213Z,33.62
2023-02-02T12:54:33.272Z,33.62
2023-02-02T12:55:19.103Z,33.65
2023-02-02T12:56:19.050Z,33.66
2023-02-02T12:57:18.996Z,33.64
2023-02-02T12:58:18.937Z,33.65
2023-02-02T12:59:18.893Z,33.62
2023-02-02T13:00:19.088Z,33.61
2023-02-02T13:01:18.894Z,33.59
2023-02-02T13:02:18.826Z,33.56
2023-02-02T13:03:18.691Z,33.57
2023-02-02T13:04:18.645Z,33.55
2023-02-02T13:05:19.100Z,33.53
2023-02-02T13:06:18.566Z,33.53
2023-02-02T13:07:18.512Z,33.53
2023-02-02T13:08:18.467Z,33.51
2023-02-02T13:09:20.026Z,33.50
2023-02-02T13:10:18.754Z,33.50
2023-02-02T13:11:18.490Z,33.51
2023-02-02T13:12:18.445Z,33.47
2023-02-02T13:13:18.581Z,33.47
2023-02-02T13:14:18.355Z,33.46
2023-02-02T13:15:18.597Z,33.43
2023-02-02T13:16:18.292Z,33.43
2023-02-02T13:17:18.210Z,33.43
2023-02-02T13:18:18.168Z,33.40
2023-02-02T13:19:18.116Z,33.42
2023-02-02T13:20:18.375Z,33.38
2023-02-02T13:21:18.078Z,33.39
2023-02-02T13:22:17.980Z,33.37
2023-02-02T13:23:17.942Z,33.36
2023-02-02T13:24:17.902Z,33.35
2023-02-02T13:25:17.885Z,33.33
2023-02-02T13:26:17.953Z,33.31
2023-02-02T13:27:17.934Z,33.32
2023-02-02T13:28:17.765Z,33.31
2023-02-02T13:29:17.725Z,33.28
2023-02-02T13:30:17.691Z,33.26
2023-02-02T13:31:17.852Z,33.25
2023-02-02T13:32:17.612Z,33.24
2023-02-02T13:33:17.575Z,33.23
2023-02-02T13:34:17.569Z,33.23
2023-02-02T13:35:17.530Z,33.22
2023-02-02T13:36:17.451Z,33.21
2023-02-02T13:37:17.627Z,33.20
2023-02-02T13:38:17.367Z,33.17
2023-02-02T13:39:17.327Z,33.16
2023-02-02T13:40:17.284Z,33.15
2023-02-02T13:41:17.240Z,33.14
2023-02-02T13:42:17.300Z,33.12
2023-02-02T13:43:17.156Z,33.12
2023-02-02T13:44:17.119Z,33.10
2023-02-02T13:45:17.078Z,33.08
2023-02-02T13:46:17.063Z,33.07